Rechercher aéroport 
image banner adimage banner adimage banner ad
image banner ad

PA50 - Bloomsburg Hospital

Situé à Bloomsburg, United States

ICAO - PA50, IATA -

Données fournies par Airmate  

Information générale

Coordonnées: N41°0'36" W76°27'8"
Élévation : 660 feet MSL.
Variation magnétique : -11° East
Voir autres Aéroports à Pennsylvania

Données opérationnelles

Special qualification required
Heure actuelle UTC:
Heure actuelle locale:
Météo à : KHZL - Hazleton Rgnl ( 38 km )
METAR: KHZL 131915Z AUTO 16005KT 10SM BKN013 BKN018 OVC041 22/17 A2996 RMK AO2
Voir NOTAMs / SUP AIP / TFR affectant cet aéroport [VIEW]
Fréquences de communication: [VIEW]

Pistes:

Coordonnées de l'aéroport

Adresse: Bloomsburg United States

Vue satellite de PA50